createdAt,value
2019-02-23T00:01:57.732Z,99.20
2019-02-23T00:04:24.114Z,97.53
2019-02-23T00:06:50.517Z,95.70
2019-02-23T00:09:16.851Z,71.83
2019-02-23T00:11:43.208Z,98.37
2019-02-23T00:14:09.562Z,128.57
2019-02-23T00:16:35.996Z,112.83
2019-02-23T00:19:02.343Z,101.27
2019-02-23T00:21:28.752Z,99.70
2019-02-23T00:23:55.153Z,79.27
2019-02-23T00:26:21.544Z,54.10
2019-02-23T00:28:47.929Z,37.67
2019-02-23T00:31:14.291Z,39.97
2019-02-23T00:33:40.694Z,45.87
2019-02-23T00:36:07.175Z,38.00
2019-02-23T00:38:33.511Z,43.77
2019-02-23T00:41:00.001Z,41.30
2019-02-23T00:43:26.436Z,44.43
2019-02-23T00:45:52.788Z,47.10
2019-02-23T00:48:21.977Z,35.43
2019-02-23T00:50:48.337Z,41.50
2019-02-23T00:53:14.765Z,41.57
2019-02-23T00:55:41.173Z,38.20
2019-02-23T00:58:07.515Z,33.10
2019-02-23T01:00:33.894Z,37.03
2019-02-23T01:03:00.209Z,44.30
2019-02-23T01:05:26.576Z,38.37
2019-02-23T01:07:52.958Z,35.90
2019-02-23T01:10:19.782Z,37.37
2019-02-23T01:12:46.179Z,38.97
2019-02-23T01:15:12.515Z,36.87
2019-02-23T01:17:38.848Z,40.77
2019-02-23T01:20:07.806Z,58.87
2019-02-23T01:22:34.174Z,59.93
2019-02-23T01:25:00.514Z,77.50
2019-02-23T01:27:27.004Z,75.90
2019-02-23T01:29:53.370Z,87.50
2019-02-23T01:32:19.701Z,72.97
2019-02-23T01:34:46.119Z,55.80
2019-02-23T01:37:12.473Z,64.70
2019-02-23T01:39:38.884Z,73.97
2019-02-23T01:42:05.210Z,97.53
2019-02-23T01:44:32.830Z,118.40
2019-02-23T01:46:59.156Z,145.40
2019-02-23T01:49:25.675Z,159.70
2019-02-23T01:51:52.038Z,118.77
2019-02-23T01:54:18.392Z,85.10
2019-02-23T01:56:44.732Z,54.30
2019-02-23T01:59:11.067Z,47.00
2019-02-23T02:01:37.536Z,48.60
2019-02-23T02:04:03.896Z,63.17
2019-02-23T02:06:33.584Z,69.30
2019-02-23T02:08:59.397Z,41.07
2019-02-23T02:11:25.940Z,40.57
2019-02-23T02:13:52.280Z,43.17
2019-02-23T02:16:18.748Z,35.03
2019-02-23T02:18:45.079Z,32.47
2019-02-23T02:21:11.491Z,35.17
2019-02-23T02:23:37.847Z,33.00
2019-02-23T02:26:04.203Z,28.87
2019-02-23T02:28:30.601Z,32.27
2019-02-23T02:30:56.999Z,29.13
2019-02-23T02:33:23.368Z,36.43
2019-02-23T02:35:49.732Z,50.30
2019-02-23T02:38:16.105Z,47.37
2019-02-23T02:40:42.466Z,38.73
2019-02-23T02:43:08.859Z,37.37
2019-02-23T02:45:35.451Z,40.60
2019-02-23T02:48:01.830Z,37.17
2019-02-23T02:50:28.185Z,46.20
2019-02-23T02:52:54.544Z,40.27
2019-02-23T02:55:20.907Z,41.17
2019-02-23T02:57:47.362Z,47.53
2019-02-23T03:00:13.872Z,46.87
2019-02-23T03:02:41.486Z,42.90
2019-02-23T03:05:08.370Z,48.13
2019-02-23T03:07:35.790Z,46.37
2019-02-23T03:10:02.775Z,48.33
2019-02-23T03:12:29.330Z,47.27
2019-02-23T03:14:56.803Z,38.90
2019-02-23T03:17:23.110Z,43.90
2019-02-23T03:19:49.485Z,45.83
2019-02-23T03:22:15.829Z,45.90
2019-02-23T03:24:42.211Z,44.60
2019-02-23T03:27:08.654Z,45.53
2019-02-23T03:29:34.993Z,44.87
2019-02-23T03:32:01.366Z,46.00
2019-02-23T03:34:27.719Z,49.57
2019-02-23T03:36:54.051Z,47.50
2019-02-23T03:39:20.424Z,42.03
2019-02-23T03:41:46.814Z,45.10
2019-02-23T03:44:13.282Z,46.47
2019-02-23T03:46:39.650Z,48.87
2019-02-23T03:49:06.061Z,52.47
2019-02-23T03:51:32.873Z,45.70
2019-02-23T03:53:59.880Z,60.30
2019-02-23T03:56:26.822Z,57.30
2019-02-23T03:58:53.943Z,60.87
2019-02-23T04:01:20.976Z,59.40
2019-02-23T04:03:47.469Z,58.43
2019-02-23T04:06:13.820Z,56.97
2019-02-23T04:08:40.262Z,60.10
2019-02-23T04:11:06.583Z,59.70
2019-02-23T04:13:33.482Z,56.57
2019-02-23T04:15:59.926Z,55.13
2019-02-23T04:18:26.904Z,60.80
2019-02-23T04:21:01.246Z,62.27
2019-02-23T04:23:21.379Z,60.20
2019-02-23T04:25:47.700Z,73.40
2019-02-23T04:28:14.088Z,62.03
2019-02-23T04:30:40.396Z,62.10
2019-02-23T04:33:06.753Z,61.57
2019-02-23T04:35:33.111Z,71.67
2019-02-23T04:37:59.485Z,76.47
2019-02-23T04:40:25.842Z,65.53
2019-02-23T04:42:52.217Z,63.43
2019-02-23T04:45:18.594Z,69.30
2019-02-23T04:47:45.059Z,65.70
2019-02-23T04:50:11.416Z,71.97
2019-02-23T04:52:37.760Z,79.67
2019-02-23T04:55:05.913Z,93.20
2019-02-23T04:57:32.303Z,81.40
2019-02-23T04:59:58.702Z,81.53
2019-02-23T05:02:25.109Z,76.07
2019-02-23T05:04:51.432Z,67.87
2019-02-23T05:07:17.794Z,72.50
2019-02-23T05:09:44.163Z,68.40
2019-02-23T05:12:10.576Z,60.13
2019-02-23T05:14:36.916Z,60.87
2019-02-23T05:17:03.304Z,65.67
2019-02-23T05:19:29.652Z,65.53
2019-02-23T05:21:56.091Z,65.27
2019-02-23T05:24:22.422Z,63.33
2019-02-23T05:26:48.794Z,65.47
2019-02-23T05:29:15.149Z,66.67
2019-02-23T05:31:41.505Z,74.43
2019-02-23T05:34:07.866Z,74.30
2019-02-23T05:36:34.262Z,65.70
2019-02-23T05:39:00.587Z,62.60
2019-02-23T05:41:26.967Z,69.43
2019-02-23T05:43:53.297Z,64.93
2019-02-23T05:46:19.689Z,59.77
2019-02-23T05:48:46.067Z,57.43
2019-02-23T05:51:12.406Z,51.87
2019-02-23T05:53:38.801Z,66.77
2019-02-23T05:56:05.151Z,61.23
2019-02-23T05:58:34.618Z,60.47
2019-02-23T06:01:01.037Z,57.57
2019-02-23T06:03:27.390Z,58.83
2019-02-23T06:05:53.763Z,57.73
2019-02-23T06:08:20.436Z,49.57
2019-02-23T06:10:47.915Z,56.10
2019-02-23T06:13:17.291Z,60.97
2019-02-23T06:15:43.694Z,59.17
2019-02-23T06:18:10.054Z,54.50
2019-02-23T06:20:36.460Z,57.80
2019-02-23T06:23:02.850Z,57.33
2019-02-23T06:25:29.187Z,51.60
2019-02-23T06:27:55.633Z,57.97
2019-02-23T06:30:22.161Z,55.17
2019-02-23T06:32:48.603Z,57.40
2019-02-23T06:35:14.893Z,52.60
2019-02-23T06:37:41.282Z,50.20
2019-02-23T06:40:09.538Z,47.17
2019-02-23T06:42:36.780Z,58.63
2019-02-23T06:45:06.997Z,51.30
2019-02-23T06:47:33.419Z,51.93
2019-02-23T06:49:59.896Z,65.13
2019-02-23T06:52:26.909Z,55.50
2019-02-23T06:54:53.273Z,52.37
2019-02-23T06:57:19.653Z,54.47
2019-02-23T06:59:46.007Z,51.77
2019-02-23T07:02:12.436Z,56.03
2019-02-23T07:04:38.854Z,56.57
2019-02-23T07:07:06.020Z,57.03
2019-02-23T07:09:32.547Z,62.53
2019-02-23T07:11:58.954Z,89.83
2019-02-23T07:14:25.379Z,85.50
2019-02-23T07:16:51.754Z,90.10
2019-02-23T07:19:19.179Z,98.57
2019-02-23T07:21:45.593Z,142.87
2019-02-23T07:24:11.941Z,184.77
2019-02-23T07:26:38.292Z,179.23
2019-02-23T07:29:04.743Z,224.13
2019-02-23T07:31:31.093Z,231.07
2019-02-23T07:33:57.440Z,150.97
2019-02-23T07:36:23.788Z,118.03
2019-02-23T07:38:50.231Z,144.03
2019-02-23T07:41:16.652Z,140.03
2019-02-23T07:43:43.089Z,108.43
2019-02-23T07:46:09.509Z,92.90
2019-02-23T07:48:36.103Z,79.03
2019-02-23T07:51:02.507Z,79.57
2019-02-23T07:53:28.992Z,76.37
2019-02-23T07:55:55.386Z,88.83
2019-02-23T07:58:21.813Z,86.43
2019-02-23T08:00:48.282Z,83.17
2019-02-23T08:03:15.532Z,80.53
2019-02-23T08:05:42.178Z,79.07
2019-02-23T08:08:08.612Z,87.80
2019-02-23T08:10:35.038Z,59.80
2019-02-23T08:13:01.514Z,58.20
2019-02-23T08:15:28.509Z,46.50
2019-02-23T08:17:55.024Z,49.07
2019-02-23T08:20:21.498Z,49.30
2019-02-23T08:22:47.944Z,44.67
2019-02-23T08:25:14.481Z,42.93
2019-02-23T08:27:40.872Z,45.57
2019-02-23T08:30:15.804Z,36.73
2019-02-23T08:32:43.267Z,27.13
2019-02-23T08:35:09.699Z,26.07
2019-02-23T08:37:36.092Z,19.83
2019-02-23T08:40:05.644Z,36.07
2019-02-23T08:42:32.080Z,18.73
2019-02-23T08:44:58.532Z,26.00
2019-02-23T08:47:25.064Z,22.00
2019-02-23T08:49:51.441Z,25.67
2019-02-23T08:52:17.907Z,23.83
2019-02-23T08:54:44.346Z,19.30
2019-02-23T08:57:10.763Z,20.40
2019-02-23T08:59:37.168Z,20.07
2019-02-23T09:02:03.565Z,16.83
2019-02-23T09:04:29.977Z,21.07
2019-02-23T09:06:56.459Z,24.93
2019-02-23T09:09:22.804Z,18.37
2019-02-23T09:11:49.264Z,20.90
2019-02-23T09:14:15.685Z,21.17
2019-02-23T09:16:42.096Z,18.20
2019-02-23T09:19:08.542Z,19.60
2019-02-23T09:21:34.905Z,24.53
2019-02-23T09:24:01.363Z,24.70
2019-02-23T09:26:27.773Z,28.77
2019-02-23T09:28:54.147Z,36.67
2019-02-23T09:31:20.598Z,24.73
2019-02-23T09:33:47.134Z,20.83
2019-02-23T09:36:14.496Z,17.10
2019-02-23T09:38:40.929Z,24.23
2019-02-23T09:41:07.335Z,21.30
2019-02-23T09:43:33.794Z,19.83
2019-02-23T09:46:00.139Z,13.50
2019-02-23T09:48:26.573Z,17.37
2019-02-23T09:50:52.928Z,15.77
2019-02-23T09:53:19.306Z,11.83
2019-02-23T09:55:46.124Z,16.33
2019-02-23T09:58:15.330Z,12.40
2019-02-23T10:00:41.744Z,14.90
2019-02-23T10:03:08.080Z,13.03
2019-02-23T10:05:34.446Z,12.30
2019-02-23T10:08:00.862Z,12.77
2019-02-23T10:10:27.265Z,16.80
2019-02-23T10:12:53.695Z,13.70
2019-02-23T10:15:20.105Z,21.23
2019-02-23T10:17:46.497Z,18.63
2019-02-23T10:20:13.953Z,16.07
2019-02-23T10:22:40.417Z,24.53
2019-02-23T10:25:07.151Z,19.43
2019-02-23T10:27:33.702Z,18.63
2019-02-23T10:30:00.175Z,15.20
2019-02-23T10:32:26.894Z,14.87
2019-02-23T10:34:53.276Z,15.83
2019-02-23T10:37:19.755Z,13.60
2019-02-23T10:39:46.168Z,14.07
2019-02-23T10:42:13.733Z,14.70
2019-02-23T10:44:40.181Z,15.13
2019-02-23T10:47:06.616Z,11.80
2019-02-23T10:49:33.074Z,12.07
2019-02-23T10:51:59.488Z,13.60
2019-02-23T10:54:25.985Z,16.97
2019-02-23T10:56:52.550Z,16.47
2019-02-23T10:59:18.881Z,13.27
2019-02-23T11:01:45.358Z,16.53
2019-02-23T11:04:11.848Z,15.43
2019-02-23T11:06:38.580Z,12.27
2019-02-23T11:09:05.249Z,18.50
2019-02-23T11:11:33.579Z,21.80
2019-02-23T11:13:59.973Z,24.57
2019-02-23T11:16:26.349Z,17.23
2019-02-23T11:18:52.725Z,24.27
2019-02-23T11:21:19.338Z,22.07
2019-02-23T11:23:46.047Z,19.77
2019-02-23T11:26:12.496Z,25.53
2019-02-23T11:28:39.938Z,42.50
2019-02-23T11:31:06.389Z,28.47
2019-02-23T11:33:33.855Z,40.70
2019-02-23T11:36:00.301Z,43.77
2019-02-23T11:38:26.700Z,32.27
2019-02-23T11:40:53.197Z,25.30
2019-02-23T11:43:19.541Z,24.53
2019-02-23T11:45:46.020Z,25.70
2019-02-23T11:48:12.618Z,37.33
2019-02-23T11:50:39.215Z,26.83
2019-02-23T11:53:05.669Z,24.33
2019-02-23T11:55:32.266Z,30.53
2019-02-23T11:57:58.808Z,19.70
2019-02-23T12:00:25.566Z,21.67
2019-02-23T12:02:52.912Z,24.77
2019-02-23T12:05:19.557Z,28.70
2019-02-23T12:07:45.930Z,14.67
2019-02-23T12:10:14.280Z,20.47
2019-02-23T12:12:40.833Z,19.33
2019-02-23T12:15:07.730Z,25.03
2019-02-23T12:17:34.258Z,44.00
2019-02-23T12:20:00.825Z,52.53
2019-02-23T12:22:27.353Z,95.17
2019-02-23T12:24:53.780Z,71.00
2019-02-23T12:27:20.337Z,25.07
2019-02-23T12:29:46.805Z,22.97
2019-02-23T12:32:13.248Z,21.50
2019-02-23T12:34:39.707Z,79.30
2019-02-23T12:37:06.187Z,150.57
2019-02-23T12:39:32.655Z,72.90
2019-02-23T12:41:59.853Z,26.10
2019-02-23T12:44:26.495Z,19.17
2019-02-23T12:46:52.934Z,19.40
2019-02-23T12:49:19.410Z,20.53
2019-02-23T12:51:45.813Z,18.53
2019-02-23T12:54:16.826Z,26.87
2019-02-23T12:56:41.594Z,24.33
2019-02-23T12:59:08.141Z,20.17
2019-02-23T13:01:34.699Z,20.50
2019-02-23T13:04:01.091Z,24.07
2019-02-23T13:06:27.560Z,22.27
2019-02-23T13:09:14.488Z,17.27
2019-02-23T13:11:59.885Z,14.50
2019-02-23T13:14:32.971Z,16.60
2019-02-23T13:17:05.942Z,15.60
2019-02-23T13:19:45.296Z,16.13
2019-02-23T13:22:15.936Z,22.07
2019-02-23T13:24:49.339Z,17.37
2019-02-23T13:27:26.007Z,13.63
2019-02-23T13:30:11.072Z,14.00
2019-02-23T13:32:59.122Z,19.27
2019-02-23T13:35:44.694Z,18.27
2019-02-23T13:38:21.193Z,16.60
2019-02-23T13:41:03.757Z,17.43
2019-02-23T13:43:40.090Z,20.00
2019-02-23T13:46:19.466Z,23.87
2019-02-23T13:49:22.703Z,20.50
2019-02-23T13:52:05.265Z,17.33
2019-02-23T13:54:53.832Z,19.13
2019-02-23T13:57:27.079Z,16.83
2019-02-23T14:00:13.067Z,12.83
2019-02-23T14:03:17.321Z,16.10
2019-02-23T14:06:05.979Z,15.47
2019-02-23T14:09:10.076Z,21.80
2019-02-23T14:12:04.979Z,15.47
2019-02-23T14:14:47.469Z,19.87
2019-02-23T14:17:23.882Z,14.10
2019-02-23T14:19:57.111Z,12.20
2019-02-23T14:22:46.872Z,13.27
2019-02-23T14:25:43.205Z,14.40
2019-02-23T14:28:22.373Z,16.80
2019-02-23T14:31:16.476Z,18.50
2019-02-23T14:33:52.605Z,26.53
2019-02-23T14:36:50.255Z,13.90
2019-02-23T14:39:32.768Z,22.07
2019-02-23T14:42:19.848Z,13.73
2019-02-23T14:45:17.338Z,15.37
2019-02-23T14:47:53.494Z,17.00
2019-02-23T14:50:32.179Z,20.63
2019-02-23T14:53:19.070Z,13.23
2019-02-23T14:55:58.038Z,10.97
2019-02-23T14:58:28.274Z,14.77
2019-02-23T15:01:25.651Z,13.23
2019-02-23T15:04:04.842Z,17.03
2019-02-23T15:06:58.401Z,15.43
2019-02-23T15:10:00.327Z,14.50
2019-02-23T15:12:39.312Z,15.27
2019-02-23T15:15:19.175Z,16.13
2019-02-23T15:17:55.700Z,17.23
2019-02-23T15:20:46.121Z,21.27
2019-02-23T15:23:32.507Z,16.40
2019-02-23T15:26:05.825Z,18.70
2019-02-23T15:28:52.827Z,15.97
2019-02-23T15:31:42.942Z,16.77
2019-02-23T15:34:19.164Z,22.63
2019-02-23T15:37:23.273Z,18.77
2019-02-23T15:40:02.838Z,16.07
2019-02-23T15:42:32.984Z,15.60
2019-02-23T15:45:19.988Z,13.93
2019-02-23T15:48:07.091Z,16.57
2019-02-23T15:50:33.968Z,18.03
2019-02-23T15:53:00.319Z,13.50
2019-02-23T15:55:29.852Z,14.97
2019-02-23T15:57:55.633Z,14.23
2019-02-23T16:00:22.100Z,14.47
2019-02-23T16:02:48.469Z,17.40
2019-02-23T16:05:14.826Z,16.20
2019-02-23T16:07:41.275Z,20.23
2019-02-23T16:10:07.736Z,16.73
2019-02-23T16:12:34.223Z,17.67
2019-02-23T16:15:01.382Z,21.80
2019-02-23T16:17:29.833Z,12.80
2019-02-23T16:19:56.262Z,18.67
2019-02-23T16:22:23.529Z,19.23
2019-02-23T16:24:49.944Z,21.90
2019-02-23T16:27:16.459Z,16.27
2019-02-23T16:29:42.943Z,32.27
2019-02-23T16:32:09.398Z,36.53
2019-02-23T16:34:35.889Z,46.70
2019-02-23T16:37:02.327Z,31.77
2019-02-23T16:39:29.827Z,21.10
2019-02-23T16:41:57.296Z,16.77
2019-02-23T16:44:23.895Z,17.37
2019-02-23T16:46:50.355Z,24.13
2019-02-23T16:49:16.908Z,28.60
2019-02-23T16:51:44.483Z,31.47
2019-02-23T16:54:12.357Z,24.43
2019-02-23T16:56:39.243Z,22.87
2019-02-23T16:59:06.867Z,23.80
2019-02-23T17:01:34.514Z,22.47
2019-02-23T17:04:01.285Z,22.70
2019-02-23T17:06:27.943Z,43.77
2019-02-23T17:08:54.459Z,73.73
2019-02-23T17:11:21.706Z,102.13
2019-02-23T17:13:48.957Z,107.47
2019-02-23T17:16:15.396Z,117.10
2019-02-23T17:18:42.811Z,110.93
2019-02-23T17:21:09.700Z,56.40
2019-02-23T17:23:36.941Z,63.87
2019-02-23T17:26:04.698Z,75.63
2019-02-23T17:28:31.336Z,72.60
2019-02-23T17:30:58.739Z,70.17
2019-02-23T17:33:27.879Z,91.80
2019-02-23T17:35:53.466Z,82.23
2019-02-23T17:38:19.955Z,69.00
2019-02-23T17:40:46.347Z,51.30
2019-02-23T17:43:12.946Z,48.57
2019-02-23T17:45:39.358Z,35.40
2019-02-23T17:48:05.774Z,33.60
2019-02-23T17:50:32.168Z,32.60
2019-02-23T17:52:58.672Z,43.40
2019-02-23T17:55:25.266Z,38.27
2019-02-23T17:57:51.951Z,39.27
2019-02-23T18:00:20.382Z,34.77
2019-02-23T18:02:46.785Z,34.83
2019-02-23T18:05:13.132Z,38.43
2019-02-23T18:07:39.747Z,43.33
2019-02-23T18:10:06.254Z,29.77
2019-02-23T18:12:32.616Z,30.63
2019-02-23T18:14:59.393Z,28.77
2019-02-23T18:17:25.857Z,26.27
2019-02-23T18:19:52.367Z,33.07
2019-02-23T18:22:19.030Z,32.60
2019-02-23T18:24:46.126Z,33.77
2019-02-23T18:27:12.791Z,36.03
2019-02-23T18:29:39.374Z,33.30
2019-02-23T18:32:05.757Z,33.23
2019-02-23T18:34:32.316Z,36.43
2019-02-23T18:37:00.162Z,45.60
2019-02-23T18:39:27.319Z,55.97
2019-02-23T18:41:53.899Z,48.53
2019-02-23T18:44:20.321Z,49.27
2019-02-23T18:46:47.815Z,38.30
2019-02-23T18:49:14.231Z,44.73
2019-02-23T18:51:40.643Z,41.97
2019-02-23T18:54:07.097Z,39.70
2019-02-23T18:56:33.527Z,41.97
2019-02-23T18:59:01.120Z,40.80
2019-02-23T19:01:27.588Z,42.73
2019-02-23T19:03:54.007Z,43.17
2019-02-23T19:06:20.341Z,42.10
2019-02-23T19:08:46.747Z,40.57
2019-02-23T19:11:13.112Z,35.73
2019-02-23T19:13:39.604Z,39.00
2019-02-23T19:16:06.212Z,46.73
2019-02-23T19:18:32.654Z,40.40
2019-02-23T19:20:59.131Z,43.10
2019-02-23T19:23:25.765Z,40.77
2019-02-23T19:25:52.167Z,47.13
2019-02-23T19:28:18.603Z,50.97
2019-02-23T19:30:45.176Z,45.33
2019-02-23T19:33:11.653Z,48.77
2019-02-23T19:35:38.167Z,47.13
2019-02-23T19:38:04.566Z,43.27
2019-02-23T19:40:30.982Z,55.20
2019-02-23T19:42:57.345Z,48.27
2019-02-23T19:45:23.777Z,49.50
2019-02-23T19:47:50.298Z,50.93
2019-02-23T19:50:23.373Z,43.57
2019-02-23T19:52:50.885Z,41.13
2019-02-23T19:55:17.264Z,40.83
2019-02-23T19:57:43.822Z,50.40
2019-02-23T20:00:10.289Z,46.77
2019-02-23T20:02:37.378Z,50.30
2019-02-23T20:05:07.203Z,49.77
2019-02-23T20:07:34.734Z,45.50
2019-02-23T20:10:01.108Z,46.23
2019-02-23T20:12:28.263Z,50.60
2019-02-23T20:14:54.775Z,49.20
2019-02-23T20:17:21.228Z,43.97
2019-02-23T20:19:47.708Z,44.13
2019-02-23T20:22:14.157Z,47.97
2019-02-23T20:24:40.655Z,44.67
2019-02-23T20:27:07.085Z,49.20
2019-02-23T20:29:33.604Z,44.17
2019-02-23T20:32:00.040Z,47.67
2019-02-23T20:34:26.419Z,47.77
2019-02-23T20:36:52.947Z,44.13
2019-02-23T20:39:19.473Z,54.60
2019-02-23T20:41:45.915Z,46.73
2019-02-23T20:44:12.336Z,53.37
2019-02-23T20:46:39.059Z,51.27
2019-02-23T20:49:05.452Z,53.60
2019-02-23T20:51:31.897Z,50.23
2019-02-23T20:53:58.320Z,56.00
2019-02-23T20:56:24.790Z,58.00
2019-02-23T20:58:51.209Z,48.63
2019-02-23T21:01:17.609Z,57.40
2019-02-23T21:03:44.107Z,53.43
2019-02-23T21:06:10.465Z,56.40
2019-02-23T21:08:36.984Z,53.60
2019-02-23T21:11:03.331Z,61.00
2019-02-23T21:13:29.745Z,59.27
2019-02-23T21:15:56.170Z,58.87
2019-02-23T21:18:22.713Z,58.07
2019-02-23T21:20:49.195Z,47.87
2019-02-23T21:23:15.670Z,57.33
2019-02-23T21:25:42.836Z,55.83
2019-02-23T21:28:09.513Z,48.53
2019-02-23T21:30:36.209Z,46.67
2019-02-23T21:33:02.722Z,47.13
2019-02-23T21:35:29.486Z,47.87
2019-02-23T21:37:56.085Z,46.93
2019-02-23T21:40:22.465Z,51.10
2019-02-23T21:42:48.927Z,56.97
2019-02-23T21:45:15.392Z,48.57
2019-02-23T21:47:41.780Z,53.73
2019-02-23T21:50:09.144Z,62.70
2019-02-23T21:52:37.010Z,64.63
2019-02-23T21:55:03.669Z,63.20
2019-02-23T21:57:31.976Z,62.03
2019-02-23T21:59:58.389Z,62.47
2019-02-23T22:02:24.868Z,61.77
2019-02-23T22:04:51.277Z,66.23
2019-02-23T22:07:17.707Z,65.27
2019-02-23T22:09:44.218Z,60.03
2019-02-23T22:12:10.660Z,52.07
2019-02-23T22:14:37.129Z,65.00
2019-02-23T22:17:03.626Z,58.20
2019-02-23T22:19:30.064Z,58.33
2019-02-23T22:21:56.673Z,52.83
2019-02-23T22:24:23.038Z,55.17
2019-02-23T22:26:49.496Z,57.73
2019-02-23T22:29:15.919Z,55.93
2019-02-23T22:31:43.987Z,58.97
2019-02-23T22:34:10.610Z,56.73
2019-02-23T22:36:37.061Z,50.63
2019-02-23T22:39:03.902Z,47.60
2019-02-23T22:41:32.083Z,52.70
2019-02-23T22:43:58.431Z,58.33
2019-02-23T22:46:24.807Z,53.40
2019-02-23T22:48:51.148Z,54.50
2019-02-23T22:51:17.568Z,54.87
2019-02-23T22:53:43.921Z,55.07
2019-02-23T22:56:10.281Z,53.27
2019-02-23T22:58:36.695Z,58.13
2019-02-23T23:01:05.288Z,51.80
2019-02-23T23:03:33.825Z,48.63
2019-02-23T23:06:00.190Z,53.37
2019-02-23T23:08:26.593Z,52.33
2019-02-23T23:10:52.973Z,52.50
2019-02-23T23:13:19.348Z,54.07
2019-02-23T23:15:45.794Z,60.80
2019-02-23T23:18:12.239Z,48.97
2019-02-23T23:20:38.641Z,55.17
2019-02-23T23:23:05.006Z,52.40
2019-02-23T23:25:31.423Z,52.53
2019-02-23T23:27:57.774Z,51.53
2019-02-23T23:30:24.184Z,53.77
2019-02-23T23:32:50.713Z,51.87
2019-02-23T23:35:18.229Z,51.83
2019-02-23T23:37:44.668Z,57.63
2019-02-23T23:40:11.005Z,46.37
2019-02-23T23:42:38.544Z,51.53
2019-02-23T23:45:05.001Z,52.50
2019-02-23T23:47:31.870Z,51.77
2019-02-23T23:49:58.233Z,50.57
2019-02-23T23:52:24.581Z,51.60
2019-02-23T23:54:51.014Z,41.80
2019-02-23T23:57:17.384Z,59.30
2019-02-23T23:59:43.781Z,48.07
